sensor_id;sensor_type;location;lat;lon;timestamp;temperature;humidity
19552;DHT22;9921;47.186;9.778;2023-07-31T00:00:50;17.30;99.90
19552;DHT22;9921;47.186;9.778;2023-07-31T00:03:17;17.30;99.90
19552;DHT22;9921;47.186;9.778;2023-07-31T00:05:44;17.30;99.90
19552;DHT22;9921;47.186;9.778;2023-07-31T00:08:11;17.20;99.90
19552;DHT22;9921;47.186;9.778;2023-07-31T00:10:39;17.10;99.90
19552;DHT22;9921;47.186;9.778;2023-07-31T00:13:06;17.00;99.90
19552;DHT22;9921;47.186;9.778;2023-07-31T00:15:33;17.00;99.90
19552;DHT22;9921;47.186;9.778;2023-07-31T00:18:00;17.00;99.90
19552;DHT22;9921;47.186;9.778;2023-07-31T00:20:27;17.00;99.90
19552;DHT22;9921;47.186;9.778;2023-07-31T00:22:54;17.00;99.90
19552;DHT22;9921;47.186;9.778;2023-07-31T00:25:21;17.00;99.90
19552;DHT22;9921;47.186;9.778;2023-07-31T00:27:49;17.00;99.90
19552;DHT22;9921;47.186;9.778;2023-07-31T00:30:16;16.90;99.90
19552;DHT22;9921;47.186;9.778;2023-07-31T00:32:43;16.90;99.90
19552;DHT22;9921;47.186;9.778;2023-07-31T00:35:10;16.90;99.90
19552;DHT22;9921;47.186;9.778;2023-07-31T00:37:37;16.90;99.90
19552;DHT22;9921;47.186;9.778;2023-07-31T00:40:04;16.90;99.90
19552;DHT22;9921;47.186;9.778;2023-07-31T00:42:31;16.90;99.90
19552;DHT22;9921;47.186;9.778;2023-07-31T00:44:59;16.90;99.90
19552;DHT22;9921;47.186;9.778;2023-07-31T00:47:26;16.90;99.90
19552;DHT22;9921;47.186;9.778;2023-07-31T00:49:54;16.90;99.90
19552;DHT22;9921;47.186;9.778;2023-07-31T00:52:21;16.80;99.90
19552;DHT22;9921;47.186;9.778;2023-07-31T00:54:48;16.80;99.90
19552;DHT22;9921;47.186;9.778;2023-07-31T00:57:15;16.70;99.90
19552;DHT22;9921;47.186;9.778;2023-07-31T00:59:42;16.70;99.90
19552;DHT22;9921;47.186;9.778;2023-07-31T01:02:10;16.70;99.90
19552;DHT22;9921;47.186;9.778;2023-07-31T01:04:37;16.70;99.90
19552;DHT22;9921;47.186;9.778;2023-07-31T01:07:10;16.60;99.90
19552;DHT22;9921;47.186;9.778;2023-07-31T01:09:42;16.60;99.90
19552;DHT22;9921;47.186;9.778;2023-07-31T01:12:14;16.60;99.90
19552;DHT22;9921;47.186;9.778;2023-07-31T01:14:51;16.60;99.90
19552;DHT22;9921;47.186;9.778;2023-07-31T01:17:19;16.60;99.90
19552;DHT22;9921;47.186;9.778;2023-07-31T01:19:47;16.60;99.90
19552;DHT22;9921;47.186;9.778;2023-07-31T01:22:28;16.50;99.90
19552;DHT22;9921;47.186;9.778;2023-07-31T01:25:05;16.40;99.90
19552;DHT22;9921;47.186;9.778;2023-07-31T01:27:42;16.40;99.90
19552;DHT22;9921;47.186;9.778;2023-07-31T01:30:14;16.40;99.90
19552;DHT22;9921;47.186;9.778;2023-07-31T01:32:43;16.30;99.90
19552;DHT22;9921;47.186;9.778;2023-07-31T01:35:14;16.30;99.90
19552;DHT22;9921;47.186;9.778;2023-07-31T01:37:41;16.20;99.90
19552;DHT22;9921;47.186;9.778;2023-07-31T01:40:09;16.20;99.90
19552;DHT22;9921;47.186;9.778;2023-07-31T01:42:38;16.20;99.90
19552;DHT22;9921;47.186;9.778;2023-07-31T01:45:05;16.20;99.90
19552;DHT22;9921;47.186;9.778;2023-07-31T01:47:32;16.20;99.90
19552;DHT22;9921;47.186;9.778;2023-07-31T01:49:59;16.20;99.90
19552;DHT22;9921;47.186;9.778;2023-07-31T01:52:26;16.20;99.90
19552;DHT22;9921;47.186;9.778;2023-07-31T01:54:53;16.10;99.90
19552;DHT22;9921;47.186;9.778;2023-07-31T01:57:20;16.10;99.90
19552;DHT22;9921;47.186;9.778;2023-07-31T01:59:48;16.10;99.90
19552;DHT22;9921;47.186;9.778;2023-07-31T02:02:16;16.10;99.90
19552;DHT22;9921;47.186;9.778;2023-07-31T02:04:42;16.10;99.90
19552;DHT22;9921;47.186;9.778;2023-07-31T02:07:09;16.10;99.90
19552;DHT22;9921;47.186;9.778;2023-07-31T02:09:36;16.10;99.90
19552;DHT22;9921;47.186;9.778;2023-07-31T02:12:03;16.00;99.90
19552;DHT22;9921;47.186;9.778;2023-07-31T02:14:30;16.00;99.90
19552;DHT22;9921;47.186;9.778;2023-07-31T02:16:58;16.00;99.90
19552;DHT22;9921;47.186;9.778;2023-07-31T02:19:25;16.10;99.90
19552;DHT22;9921;47.186;9.778;2023-07-31T02:21:52;16.00;99.90
19552;DHT22;9921;47.186;9.778;2023-07-31T02:24:19;16.00;99.90
19552;DHT22;9921;47.186;9.778;2023-07-31T02:26:45;16.00;99.90
19552;DHT22;9921;47.186;9.778;2023-07-31T02:29:12;16.00;99.90
19552;DHT22;9921;47.186;9.778;2023-07-31T02:31:39;16.00;99.90
19552;DHT22;9921;47.186;9.778;2023-07-31T02:34:07;16.00;99.90
19552;DHT22;9921;47.186;9.778;2023-07-31T02:36:34;16.00;99.90
19552;DHT22;9921;47.186;9.778;2023-07-31T02:39:01;16.00;99.90
19552;DHT22;9921;47.186;9.778;2023-07-31T02:41:28;16.00;99.90
19552;DHT22;9921;47.186;9.778;2023-07-31T02:43:54;16.00;99.90
19552;DHT22;9921;47.186;9.778;2023-07-31T02:46:21;15.90;99.90
19552;DHT22;9921;47.186;9.778;2023-07-31T02:48:50;15.90;99.90
19552;DHT22;9921;47.186;9.778;2023-07-31T02:51:18;15.80;99.90
19552;DHT22;9921;47.186;9.778;2023-07-31T02:53:46;15.80;99.90
19552;DHT22;9921;47.186;9.778;2023-07-31T02:56:13;15.80;99.90
19552;DHT22;9921;47.186;9.778;2023-07-31T02:58:40;15.70;99.90
19552;DHT22;9921;47.186;9.778;2023-07-31T03:01:07;15.70;99.90
19552;DHT22;9921;47.186;9.778;2023-07-31T03:03:34;15.70;99.90
19552;DHT22;9921;47.186;9.778;2023-07-31T03:06:01;15.70;99.90
19552;DHT22;9921;47.186;9.778;2023-07-31T03:08:29;15.60;99.90
19552;DHT22;9921;47.186;9.778;2023-07-31T03:10:56;15.60;99.90
19552;DHT22;9921;47.186;9.778;2023-07-31T03:13:23;15.60;99.90
19552;DHT22;9921;47.186;9.778;2023-07-31T03:15:50;15.60;99.90
19552;DHT22;9921;47.186;9.778;2023-07-31T03:18:17;15.60;99.90
19552;DHT22;9921;47.186;9.778;2023-07-31T03:20:44;15.50;99.90
19552;DHT22;9921;47.186;9.778;2023-07-31T03:23:11;15.50;99.90
19552;DHT22;9921;47.186;9.778;2023-07-31T03:25:41;15.50;99.90
19552;DHT22;9921;47.186;9.778;2023-07-31T03:28:08;15.50;99.90
19552;DHT22;9921;47.186;9.778;2023-07-31T03:30:36;15.50;99.90
19552;DHT22;9921;47.186;9.778;2023-07-31T03:33:03;15.50;99.90
19552;DHT22;9921;47.186;9.778;2023-07-31T03:35:30;15.50;99.90
19552;DHT22;9921;47.186;9.778;2023-07-31T03:37:57;15.50;99.90
19552;DHT22;9921;47.186;9.778;2023-07-31T03:40:24;15.50;99.90
19552;DHT22;9921;47.186;9.778;2023-07-31T03:42:52;15.50;99.90
19552;DHT22;9921;47.186;9.778;2023-07-31T03:45:19;15.50;99.90
19552;DHT22;9921;47.186;9.778;2023-07-31T03:47:46;15.40;99.90
19552;DHT22;9921;47.186;9.778;2023-07-31T03:50:12;15.40;99.90
19552;DHT22;9921;47.186;9.778;2023-07-31T03:52:40;15.40;99.90
19552;DHT22;9921;47.186;9.778;2023-07-31T03:55:08;15.40;99.90
19552;DHT22;9921;47.186;9.778;2023-07-31T03:57:35;15.30;99.90
19552;DHT22;9921;47.186;9.778;2023-07-31T04:00:03;15.30;99.90
19552;DHT22;9921;47.186;9.778;2023-07-31T04:02:30;15.30;99.90
19552;DHT22;9921;47.186;9.778;2023-07-31T04:04:57;15.20;99.90
19552;DHT22;9921;47.186;9.778;2023-07-31T04:07:24;15.20;99.90
19552;DHT22;9921;47.186;9.778;2023-07-31T04:09:51;15.20;99.90
19552;DHT22;9921;47.186;9.778;2023-07-31T04:12:18;15.20;99.90
19552;DHT22;9921;47.186;9.778;2023-07-31T04:14:44;15.20;99.90
19552;DHT22;9921;47.186;9.778;2023-07-31T04:17:13;15.20;99.90
19552;DHT22;9921;47.186;9.778;2023-07-31T04:19:41;15.20;99.90
19552;DHT22;9921;47.186;9.778;2023-07-31T04:22:07;15.20;99.90
19552;DHT22;9921;47.186;9.778;2023-07-31T04:24:34;15.30;99.90
19552;DHT22;9921;47.186;9.778;2023-07-31T04:27:01;15.30;99.90
19552;DHT22;9921;47.186;9.778;2023-07-31T04:29:28;15.30;99.90
19552;DHT22;9921;47.186;9.778;2023-07-31T04:31:55;15.30;99.90
19552;DHT22;9921;47.186;9.778;2023-07-31T04:34:23;15.30;99.90
19552;DHT22;9921;47.186;9.778;2023-07-31T04:36:50;15.30;99.90
19552;DHT22;9921;47.186;9.778;2023-07-31T04:39:17;15.30;99.90
19552;DHT22;9921;47.186;9.778;2023-07-31T04:41:44;15.40;99.90
19552;DHT22;9921;47.186;9.778;2023-07-31T04:44:10;15.40;99.90
19552;DHT22;9921;47.186;9.778;2023-07-31T04:46:37;15.30;99.90
19552;DHT22;9921;47.186;9.778;2023-07-31T04:49:04;15.30;99.90
19552;DHT22;9921;47.186;9.778;2023-07-31T04:51:32;15.30;99.90
19552;DHT22;9921;47.186;9.778;2023-07-31T04:53:59;15.30;99.90
19552;DHT22;9921;47.186;9.778;2023-07-31T04:56:26;15.40;99.90
19552;DHT22;9921;47.186;9.778;2023-07-31T04:58:53;15.50;99.90
19552;DHT22;9921;47.186;9.778;2023-07-31T05:01:20;15.50;99.90
19552;DHT22;9921;47.186;9.778;2023-07-31T05:03:47;15.60;99.90
19552;DHT22;9921;47.186;9.778;2023-07-31T05:06:14;15.60;99.90
19552;DHT22;9921;47.186;9.778;2023-07-31T05:08:42;15.70;99.90
19552;DHT22;9921;47.186;9.778;2023-07-31T05:11:09;15.70;99.90
19552;DHT22;9921;47.186;9.778;2023-07-31T05:13:36;15.80;99.90
19552;DHT22;9921;47.186;9.778;2023-07-31T05:16:03;15.90;99.90
19552;DHT22;9921;47.186;9.778;2023-07-31T05:18:30;15.90;99.90
19552;DHT22;9921;47.186;9.778;2023-07-31T05:20:56;16.00;99.90
19552;DHT22;9921;47.186;9.778;2023-07-31T05:23:23;16.10;99.90
19552;DHT22;9921;47.186;9.778;2023-07-31T05:25:51;16.20;99.90
19552;DHT22;9921;47.186;9.778;2023-07-31T05:28:18;16.20;99.90
19552;DHT22;9921;47.186;9.778;2023-07-31T05:30:45;16.30;99.90
19552;DHT22;9921;47.186;9.778;2023-07-31T05:33:12;16.30;99.90
19552;DHT22;9921;47.186;9.778;2023-07-31T05:35:39;16.40;99.90
19552;DHT22;9921;47.186;9.778;2023-07-31T05:38:05;16.50;99.90
19552;DHT22;9921;47.186;9.778;2023-07-31T05:40:33;16.50;99.90
19552;DHT22;9921;47.186;9.778;2023-07-31T05:43:01;16.50;99.90
19552;DHT22;9921;47.186;9.778;2023-07-31T05:45:28;16.60;99.90
19552;DHT22;9921;47.186;9.778;2023-07-31T05:47:54;16.60;99.90
19552;DHT22;9921;47.186;9.778;2023-07-31T05:50:21;16.60;99.90
19552;DHT22;9921;47.186;9.778;2023-07-31T05:52:48;16.60;99.90
19552;DHT22;9921;47.186;9.778;2023-07-31T05:55:15;16.60;99.90
19552;DHT22;9921;47.186;9.778;2023-07-31T05:57:42;16.60;99.90
19552;DHT22;9921;47.186;9.778;2023-07-31T06:00:14;16.70;99.90
19552;DHT22;9921;47.186;9.778;2023-07-31T06:02:40;16.70;99.90
19552;DHT22;9921;47.186;9.778;2023-07-31T06:05:08;16.80;99.90
19552;DHT22;9921;47.186;9.778;2023-07-31T06:07:35;16.90;99.90
19552;DHT22;9921;47.186;9.778;2023-07-31T06:10:02;16.90;99.90
19552;DHT22;9921;47.186;9.778;2023-07-31T06:12:31;17.00;99.90
19552;DHT22;9921;47.186;9.778;2023-07-31T06:14:58;17.10;99.90
19552;DHT22;9921;47.186;9.778;2023-07-31T06:17:26;17.10;99.90
19552;DHT22;9921;47.186;9.778;2023-07-31T06:19:53;17.10;99.90
19552;DHT22;9921;47.186;9.778;2023-07-31T06:22:20;17.20;99.90
19552;DHT22;9921;47.186;9.778;2023-07-31T06:24:47;17.20;99.90
19552;DHT22;9921;47.186;9.778;2023-07-31T06:27:14;17.20;99.90
19552;DHT22;9921;47.186;9.778;2023-07-31T06:29:40;17.30;99.90
19552;DHT22;9921;47.186;9.778;2023-07-31T06:32:07;17.30;99.90
19552;DHT22;9921;47.186;9.778;2023-07-31T06:34:36;17.40;99.90
19552;DHT22;9921;47.186;9.778;2023-07-31T06:37:03;17.50;99.90
19552;DHT22;9921;47.186;9.778;2023-07-31T06:39:29;17.70;99.90
19552;DHT22;9921;47.186;9.778;2023-07-31T06:41:56;17.80;99.90
19552;DHT22;9921;47.186;9.778;2023-07-31T06:44:23;17.90;99.90
19552;DHT22;9921;47.186;9.778;2023-07-31T06:46:50;18.10;99.90
19552;DHT22;9921;47.186;9.778;2023-07-31T06:49:17;18.20;99.90
19552;DHT22;9921;47.186;9.778;2023-07-31T06:51:45;18.30;99.90
19552;DHT22;9921;47.186;9.778;2023-07-31T06:54:12;18.30;99.90
19552;DHT22;9921;47.186;9.778;2023-07-31T06:56:38;18.50;99.90
19552;DHT22;9921;47.186;9.778;2023-07-31T06:59:05;18.40;99.90
19552;DHT22;9921;47.186;9.778;2023-07-31T07:01:32;18.50;99.90
19552;DHT22;9921;47.186;9.778;2023-07-31T07:03:59;18.50;99.90
19552;DHT22;9921;47.186;9.778;2023-07-31T07:06:26;18.60;99.90
19552;DHT22;9921;47.186;9.778;2023-07-31T07:08:54;18.60;99.90
19552;DHT22;9921;47.186;9.778;2023-07-31T07:11:21;18.60;99.90
19552;DHT22;9921;47.186;9.778;2023-07-31T07:13:47;18.60;99.90
19552;DHT22;9921;47.186;9.778;2023-07-31T07:16:14;18.60;99.90
19552;DHT22;9921;47.186;9.778;2023-07-31T07:18:41;18.70;99.90
19552;DHT22;9921;47.186;9.778;2023-07-31T07:21:08;18.70;99.90
19552;DHT22;9921;47.186;9.778;2023-07-31T07:23:35;18.80;99.90
19552;DHT22;9921;47.186;9.778;2023-07-31T07:26:03;18.80;99.90
19552;DHT22;9921;47.186;9.778;2023-07-31T07:28:31;18.90;99.90
19552;DHT22;9921;47.186;9.778;2023-07-31T07:30:58;19.00;99.90
19552;DHT22;9921;47.186;9.778;2023-07-31T07:33:25;19.10;99.90
19552;DHT22;9921;47.186;9.778;2023-07-31T07:35:52;19.20;99.90
19552;DHT22;9921;47.186;9.778;2023-07-31T07:38:18;19.20;99.90
19552;DHT22;9921;47.186;9.778;2023-07-31T07:40:46;19.30;99.90
19552;DHT22;9921;47.186;9.778;2023-07-31T07:43:17;19.30;99.90
19552;DHT22;9921;47.186;9.778;2023-07-31T07:45:44;19.40;99.90
19552;DHT22;9921;47.186;9.778;2023-07-31T07:48:10;19.50;99.90
19552;DHT22;9921;47.186;9.778;2023-07-31T07:50:38;19.60;99.90
19552;DHT22;9921;47.186;9.778;2023-07-31T07:53:05;19.70;99.90
19552;DHT22;9921;47.186;9.778;2023-07-31T07:55:32;19.90;99.90
19552;DHT22;9921;47.186;9.778;2023-07-31T07:57:59;19.90;99.90
19552;DHT22;9921;47.186;9.778;2023-07-31T08:00:27;20.00;99.90
19552;DHT22;9921;47.186;9.778;2023-07-31T08:02:54;20.00;99.90
19552;DHT22;9921;47.186;9.778;2023-07-31T08:05:22;20.20;99.90
19552;DHT22;9921;47.186;9.778;2023-07-31T08:07:49;20.20;99.90
19552;DHT22;9921;47.186;9.778;2023-07-31T08:10:16;20.30;99.90
19552;DHT22;9921;47.186;9.778;2023-07-31T08:12:43;20.30;99.90
19552;DHT22;9921;47.186;9.778;2023-07-31T08:15:10;20.30;99.90
19552;DHT22;9921;47.186;9.778;2023-07-31T08:17:39;20.40;99.90
19552;DHT22;9921;47.186;9.778;2023-07-31T08:20:07;20.40;99.90
19552;DHT22;9921;47.186;9.778;2023-07-31T08:22:34;20.50;99.90
19552;DHT22;9921;47.186;9.778;2023-07-31T08:25:01;20.60;99.90
19552;DHT22;9921;47.186;9.778;2023-07-31T08:27:28;20.80;99.90
19552;DHT22;9921;47.186;9.778;2023-07-31T08:29:56;20.90;99.90
19552;DHT22;9921;47.186;9.778;2023-07-31T08:32:23;21.00;99.90
19552;DHT22;9921;47.186;9.778;2023-07-31T08:34:51;21.10;99.90
19552;DHT22;9921;47.186;9.778;2023-07-31T08:37:18;21.10;99.90
19552;DHT22;9921;47.186;9.778;2023-07-31T08:39:45;21.10;99.90
19552;DHT22;9921;47.186;9.778;2023-07-31T08:42:12;21.10;99.90
19552;DHT22;9921;47.186;9.778;2023-07-31T08:44:39;21.10;99.90
19552;DHT22;9921;47.186;9.778;2023-07-31T08:47:06;21.10;99.90
19552;DHT22;9921;47.186;9.778;2023-07-31T08:49:34;21.10;99.90
19552;DHT22;9921;47.186;9.778;2023-07-31T08:52:03;21.10;99.90
19552;DHT22;9921;47.186;9.778;2023-07-31T08:54:30;21.10;99.90
19552;DHT22;9921;47.186;9.778;2023-07-31T08:56:59;21.10;99.90
19552;DHT22;9921;47.186;9.778;2023-07-31T08:59:29;21.10;99.90
19552;DHT22;9921;47.186;9.778;2023-07-31T09:01:59;21.20;99.90
19552;DHT22;9921;47.186;9.778;2023-07-31T09:04:30;21.10;99.90
19552;DHT22;9921;47.186;9.778;2023-07-31T09:07:03;21.20;99.90
19552;DHT22;9921;47.186;9.778;2023-07-31T09:09:30;21.30;99.90
19552;DHT22;9921;47.186;9.778;2023-07-31T09:11:57;21.30;99.90
19552;DHT22;9921;47.186;9.778;2023-07-31T09:14:25;21.40;99.90
19552;DHT22;9921;47.186;9.778;2023-07-31T09:16:53;21.50;99.90
19552;DHT22;9921;47.186;9.778;2023-07-31T09:19:25;21.60;99.90
19552;DHT22;9921;47.186;9.778;2023-07-31T09:21:53;21.70;99.90
19552;DHT22;9921;47.186;9.778;2023-07-31T09:24:27;21.70;99.90
19552;DHT22;9921;47.186;9.778;2023-07-31T09:26:55;21.80;99.90
19552;DHT22;9921;47.186;9.778;2023-07-31T09:29:24;22.00;99.90
19552;DHT22;9921;47.186;9.778;2023-07-31T09:31:52;22.10;99.90
19552;DHT22;9921;47.186;9.778;2023-07-31T09:34:20;22.30;99.90
19552;DHT22;9921;47.186;9.778;2023-07-31T09:36:48;22.60;99.90
19552;DHT22;9921;47.186;9.778;2023-07-31T09:39:17;22.80;99.90
19552;DHT22;9921;47.186;9.778;2023-07-31T09:41:47;23.00;99.90
19552;DHT22;9921;47.186;9.778;2023-07-31T09:44:19;23.10;99.90
19552;DHT22;9921;47.186;9.778;2023-07-31T09:46:46;23.30;99.90
19552;DHT22;9921;47.186;9.778;2023-07-31T09:49:14;23.50;99.90
19552;DHT22;9921;47.186;9.778;2023-07-31T09:51:42;23.60;99.90
19552;DHT22;9921;47.186;9.778;2023-07-31T09:54:10;23.70;99.90
19552;DHT22;9921;47.186;9.778;2023-07-31T09:56:41;23.90;99.90
19552;DHT22;9921;47.186;9.778;2023-07-31T09:59:12;24.10;99.90
19552;DHT22;9921;47.186;9.778;2023-07-31T10:01:40;24.30;99.90
19552;DHT22;9921;47.186;9.778;2023-07-31T10:04:09;24.40;99.90
19552;DHT22;9921;47.186;9.778;2023-07-31T10:06:38;24.50;99.90
19552;DHT22;9921;47.186;9.778;2023-07-31T10:09:06;24.60;99.90
19552;DHT22;9921;47.186;9.778;2023-07-31T10:11:37;24.60;99.90
19552;DHT22;9921;47.186;9.778;2023-07-31T10:14:05;24.60;99.90
19552;DHT22;9921;47.186;9.778;2023-07-31T10:16:37;24.60;99.90
19552;DHT22;9921;47.186;9.778;2023-07-31T10:19:05;24.70;99.90
19552;DHT22;9921;47.186;9.778;2023-07-31T10:21:34;24.70;99.90
19552;DHT22;9921;47.186;9.778;2023-07-31T10:24:04;24.70;99.90
19552;DHT22;9921;47.186;9.778;2023-07-31T10:26:32;24.70;99.90
19552;DHT22;9921;47.186;9.778;2023-07-31T10:28:59;24.60;99.90
19552;DHT22;9921;47.186;9.778;2023-07-31T10:31:27;24.60;99.90
19552;DHT22;9921;47.186;9.778;2023-07-31T10:33:56;24.70;99.90
19552;DHT22;9921;47.186;9.778;2023-07-31T10:36:24;24.80;99.90
19552;DHT22;9921;47.186;9.778;2023-07-31T10:38:50;24.90;99.90
19552;DHT22;9921;47.186;9.778;2023-07-31T10:41:17;25.10;99.90
19552;DHT22;9921;47.186;9.778;2023-07-31T10:43:46;25.20;99.90
19552;DHT22;9921;47.186;9.778;2023-07-31T10:46:13;25.30;99.90
19552;DHT22;9921;47.186;9.778;2023-07-31T10:48:41;25.30;99.90
19552;DHT22;9921;47.186;9.778;2023-07-31T10:51:11;25.40;99.90
19552;DHT22;9921;47.186;9.778;2023-07-31T10:53:39;25.40;99.90
19552;DHT22;9921;47.186;9.778;2023-07-31T10:56:08;25.40;99.90
19552;DHT22;9921;47.186;9.778;2023-07-31T10:58:37;25.40;99.90
19552;DHT22;9921;47.186;9.778;2023-07-31T11:01:05;25.40;99.90
19552;DHT22;9921;47.186;9.778;2023-07-31T11:03:42;25.50;99.90
19552;DHT22;9921;47.186;9.778;2023-07-31T11:06:12;25.60;99.90
19552;DHT22;9921;47.186;9.778;2023-07-31T11:08:42;25.60;99.90
19552;DHT22;9921;47.186;9.778;2023-07-31T11:11:10;25.60;99.90
19552;DHT22;9921;47.186;9.778;2023-07-31T11:13:42;25.60;99.90
19552;DHT22;9921;47.186;9.778;2023-07-31T11:16:10;25.70;99.90
19552;DHT22;9921;47.186;9.778;2023-07-31T11:18:39;25.70;99.90
19552;DHT22;9921;47.186;9.778;2023-07-31T11:21:07;25.80;99.90
19552;DHT22;9921;47.186;9.778;2023-07-31T11:23:37;25.80;99.90
19552;DHT22;9921;47.186;9.778;2023-07-31T11:26:05;25.90;99.90
19552;DHT22;9921;47.186;9.778;2023-07-31T11:28:33;25.90;99.90
19552;DHT22;9921;47.186;9.778;2023-07-31T11:31:01;25.90;99.90
19552;DHT22;9921;47.186;9.778;2023-07-31T11:33:28;26.00;99.90
19552;DHT22;9921;47.186;9.778;2023-07-31T11:35:55;26.00;99.90
19552;DHT22;9921;47.186;9.778;2023-07-31T11:38:23;26.10;99.90
19552;DHT22;9921;47.186;9.778;2023-07-31T11:40:52;26.10;99.90
19552;DHT22;9921;47.186;9.778;2023-07-31T11:43:19;26.10;99.90
19552;DHT22;9921;47.186;9.778;2023-07-31T11:45:47;26.20;99.90
19552;DHT22;9921;47.186;9.778;2023-07-31T11:48:19;26.20;99.90
19552;DHT22;9921;47.186;9.778;2023-07-31T11:50:47;26.30;99.90
19552;DHT22;9921;47.186;9.778;2023-07-31T11:53:16;26.30;99.90
19552;DHT22;9921;47.186;9.778;2023-07-31T11:55:44;26.30;99.90
19552;DHT22;9921;47.186;9.778;2023-07-31T11:58:14;26.40;99.90
19552;DHT22;9921;47.186;9.778;2023-07-31T12:00:42;26.50;99.90
19552;DHT22;9921;47.186;9.778;2023-07-31T12:03:09;26.50;99.90
19552;DHT22;9921;47.186;9.778;2023-07-31T12:05:37;26.60;99.90
19552;DHT22;9921;47.186;9.778;2023-07-31T12:08:09;26.80;99.90
19552;DHT22;9921;47.186;9.778;2023-07-31T12:10:37;27.00;99.90
19552;DHT22;9921;47.186;9.778;2023-07-31T12:13:08;27.30;99.90
19552;DHT22;9921;47.186;9.778;2023-07-31T12:15:39;27.40;99.90
19552;DHT22;9921;47.186;9.778;2023-07-31T12:18:12;27.50;99.90
19552;DHT22;9921;47.186;9.778;2023-07-31T12:20:42;27.60;99.90
19552;DHT22;9921;47.186;9.778;2023-07-31T12:23:14;27.70;99.90
19552;DHT22;9921;47.186;9.778;2023-07-31T12:25:41;27.70;99.90
19552;DHT22;9921;47.186;9.778;2023-07-31T12:28:08;27.80;99.90
19552;DHT22;9921;47.186;9.778;2023-07-31T12:30:40;28.00;99.90
19552;DHT22;9921;47.186;9.778;2023-07-31T12:33:12;28.10;99.90
19552;DHT22;9921;47.186;9.778;2023-07-31T12:35:42;28.20;99.90
19552;DHT22;9921;47.186;9.778;2023-07-31T12:38:09;28.40;99.90
19552;DHT22;9921;47.186;9.778;2023-07-31T12:40:38;28.60;99.90
19552;DHT22;9921;47.186;9.778;2023-07-31T12:43:05;28.60;99.90
19552;DHT22;9921;47.186;9.778;2023-07-31T12:45:32;28.50;99.90
19552;DHT22;9921;47.186;9.778;2023-07-31T12:48:01;28.50;99.90
19552;DHT22;9921;47.186;9.778;2023-07-31T12:50:28;28.50;99.90
19552;DHT22;9921;47.186;9.778;2023-07-31T12:52:55;28.40;99.90
19552;DHT22;9921;47.186;9.778;2023-07-31T12:55:22;28.20;99.90
19552;DHT22;9921;47.186;9.778;2023-07-31T12:57:50;28.10;99.90
19552;DHT22;9921;47.186;9.778;2023-07-31T13:00:17;28.00;99.90
19552;DHT22;9921;47.186;9.778;2023-07-31T13:02:44;28.00;99.90
19552;DHT22;9921;47.186;9.778;2023-07-31T13:05:12;28.00;99.90
19552;DHT22;9921;47.186;9.778;2023-07-31T13:07:39;28.10;99.90
19552;DHT22;9921;47.186;9.778;2023-07-31T13:10:07;28.10;99.90
19552;DHT22;9921;47.186;9.778;2023-07-31T13:12:34;28.10;99.90
19552;DHT22;9921;47.186;9.778;2023-07-31T13:15:01;28.20;99.90
19552;DHT22;9921;47.186;9.778;2023-07-31T13:17:28;28.20;99.90
19552;DHT22;9921;47.186;9.778;2023-07-31T13:19:54;28.30;99.90
19552;DHT22;9921;47.186;9.778;2023-07-31T13:22:23;28.40;99.90
19552;DHT22;9921;47.186;9.778;2023-07-31T13:24:49;28.40;99.90
19552;DHT22;9921;47.186;9.778;2023-07-31T13:27:16;28.30;99.90
19552;DHT22;9921;47.186;9.778;2023-07-31T13:29:45;28.20;99.90
19552;DHT22;9921;47.186;9.778;2023-07-31T13:32:12;28.20;99.90
19552;DHT22;9921;47.186;9.778;2023-07-31T13:34:38;28.10;99.90
19552;DHT22;9921;47.186;9.778;2023-07-31T13:37:05;28.20;99.90
19552;DHT22;9921;47.186;9.778;2023-07-31T13:39:34;28.40;99.90
19552;DHT22;9921;47.186;9.778;2023-07-31T13:42:01;28.60;99.90
19552;DHT22;9921;47.186;9.778;2023-07-31T13:44:28;28.70;99.90
19552;DHT22;9921;47.186;9.778;2023-07-31T13:46:55;28.60;99.90
19552;DHT22;9921;47.186;9.778;2023-07-31T13:49:22;28.40;99.90
19552;DHT22;9921;47.186;9.778;2023-07-31T13:51:49;28.20;99.90
19552;DHT22;9921;47.186;9.778;2023-07-31T13:54:16;28.10;99.90
19552;DHT22;9921;47.186;9.778;2023-07-31T13:56:44;27.90;99.90
19552;DHT22;9921;47.186;9.778;2023-07-31T13:59:11;27.80;99.90
19552;DHT22;9921;47.186;9.778;2023-07-31T14:01:39;27.70;99.90
19552;DHT22;9921;47.186;9.778;2023-07-31T14:04:05;27.60;99.90
19552;DHT22;9921;47.186;9.778;2023-07-31T14:06:32;27.50;99.90
19552;DHT22;9921;47.186;9.778;2023-07-31T14:08:59;27.50;99.90
19552;DHT22;9921;47.186;9.778;2023-07-31T14:11:26;27.40;99.90
19552;DHT22;9921;47.186;9.778;2023-07-31T14:13:55;27.40;99.90
19552;DHT22;9921;47.186;9.778;2023-07-31T14:16:22;27.40;99.90
19552;DHT22;9921;47.186;9.778;2023-07-31T14:18:49;27.40;99.90
19552;DHT22;9921;47.186;9.778;2023-07-31T14:21:16;27.30;99.90
19552;DHT22;9921;47.186;9.778;2023-07-31T14:23:45;27.20;99.90
19552;DHT22;9921;47.186;9.778;2023-07-31T14:26:12;27.00;99.90
19552;DHT22;9921;47.186;9.778;2023-07-31T14:28:38;26.80;99.90
19552;DHT22;9921;47.186;9.778;2023-07-31T14:31:07;26.60;99.90
19552;DHT22;9921;47.186;9.778;2023-07-31T14:33:33;26.50;99.90
19552;DHT22;9921;47.186;9.778;2023-07-31T14:36:01;26.50;99.90
19552;DHT22;9921;47.186;9.778;2023-07-31T14:38:28;26.40;99.90
19552;DHT22;9921;47.186;9.778;2023-07-31T14:40:54;26.20;99.90
19552;DHT22;9921;47.186;9.778;2023-07-31T14:43:22;26.10;99.90
19552;DHT22;9921;47.186;9.778;2023-07-31T14:45:49;26.00;99.90
19552;DHT22;9921;47.186;9.778;2023-07-31T14:48:17;25.90;99.90
19552;DHT22;9921;47.186;9.778;2023-07-31T14:50:44;25.90;99.90
19552;DHT22;9921;47.186;9.778;2023-07-31T14:53:11;25.90;99.90
19552;DHT22;9921;47.186;9.778;2023-07-31T14:55:37;25.90;99.90
19552;DHT22;9921;47.186;9.778;2023-07-31T14:58:04;26.00;99.90
19552;DHT22;9921;47.186;9.778;2023-07-31T15:00:31;26.00;99.90
19552;DHT22;9921;47.186;9.778;2023-07-31T15:02:58;26.00;99.90
19552;DHT22;9921;47.186;9.778;2023-07-31T15:05:26;26.00;99.90
19552;DHT22;9921;47.186;9.778;2023-07-31T15:07:53;26.00;99.90
19552;DHT22;9921;47.186;9.778;2023-07-31T15:10:20;26.00;99.90
19552;DHT22;9921;47.186;9.778;2023-07-31T15:12:46;25.90;99.90
19552;DHT22;9921;47.186;9.778;2023-07-31T15:15:14;25.80;99.90
19552;DHT22;9921;47.186;9.778;2023-07-31T15:17:41;25.70;99.90
19552;DHT22;9921;47.186;9.778;2023-07-31T15:20:09;25.70;99.90
19552;DHT22;9921;47.186;9.778;2023-07-31T15:22:38;25.60;99.90
19552;DHT22;9921;47.186;9.778;2023-07-31T15:25:06;25.50;99.90
19552;DHT22;9921;47.186;9.778;2023-07-31T15:27:33;25.40;99.90
19552;DHT22;9921;47.186;9.778;2023-07-31T15:30:00;25.40;99.90
19552;DHT22;9921;47.186;9.778;2023-07-31T15:32:28;25.30;99.90
19552;DHT22;9921;47.186;9.778;2023-07-31T15:34:55;25.30;99.90
19552;DHT22;9921;47.186;9.778;2023-07-31T15:37:22;25.30;99.90
19552;DHT22;9921;47.186;9.778;2023-07-31T15:39:50;25.20;99.90
19552;DHT22;9921;47.186;9.778;2023-07-31T15:42:17;25.20;99.90
19552;DHT22;9921;47.186;9.778;2023-07-31T15:44:43;25.10;99.90
19552;DHT22;9921;47.186;9.778;2023-07-31T15:47:10;25.10;99.90